Terminal Aerodrome Forecast
Issued by NWS Lake Charles, LA

Home | Current Version | Previous Version | Text Only | Print | Product List | Glossary On
Versions: 1 2 3 4 5 6 7 8 9 10 11 12 13 14 15 16 17
523
FTUS44 KLCH 212339
TAFLFT
TAF
KLFT 212339Z 2200/2224 18011G18KT P6SM BKN020 OVC030
     FM220200 17008KT P6SM BKN015
     FM220600 15005KT 4SM BR OVC007
     FM221400 16008KT P6SM OVC015
     FM221800 18010KT P6SM BKN025=

USA.gov is the U.S. government's official web portal to all federal, state and local government web resources and services.